Time;durP1;ratioP1;P1;durP2;ratioP2;P2;SDS_P1;SDS_P2;PMS_P1;PMS_P2;Temp;Humidity;BMP_temperature;BMP_pressure;BME280_temperature;BME280_humidity;BME280_pressure;Samples;Min_cycle;Max_cycle;Signal;HPM_P1;HPM_P2
2023/06/28 00:01:05;;;;;;;10.05;3.13;;;;;;;22.17;56.17;101979.22;5031717;28;20389;-47
2023/06/28 00:03:30;;;;;;;7.47;3.08;;;;;;;22.23;55.76;101973.81;5030804;28;20039;-49
2023/06/28 00:05:56;;;;;;;8.75;3.38;;;;;;;22.09;56.04;101979.34;5031346;28;20496;-46
2023/06/28 00:08:22;;;;;;;8.65;3.05;;;;;;;22.11;55.34;101969.59;5030904;28;20042;-49
2023/06/28 00:10:49;;;;;;;7.93;3.50;;;;;;;22.12;55.51;101967.81;5029358;28;20030;-46
2023/06/28 00:13:14;;;;;;;8.05;3.42;;;;;;;22.06;55.91;101971.47;5029896;28;20046;-44
2023/06/28 00:15:40;;;;;;;7.25;3.28;;;;;;;21.72;56.35;101970.19;5030436;28;20037;-46
2023/06/28 00:18:07;;;;;;;8.80;3.47;;;;;;;21.86;56.34;101969.09;5030288;28;20158;-48
2023/06/28 00:20:34;;;;;;;5.85;3.10;;;;;;;21.79;56.69;101967.41;5030191;28;20037;-45
2023/06/28 00:22:59;;;;;;;8.13;3.30;;;;;;;21.64;57.21;101980.94;5030577;28;20029;-46
2023/06/28 00:25:25;;;;;;;7.90;3.17;;;;;;;21.94;56.53;101978.72;5030338;28;20037;-45
2023/06/28 00:27:50;;;;;;;8.05;3.40;;;;;;;22.09;56.26;101974.03;5030326;28;20112;-48
2023/06/28 00:30:16;;;;;;;7.05;3.10;;;;;;;22.04;56.57;101969.72;5030617;28;20065;-48
2023/06/28 00:32:41;;;;;;;9.10;3.58;;;;;;;22.05;57.02;101974.13;5030480;28;20162;-49
2023/06/28 00:35:07;;;;;;;8.73;3.30;;;;;;;22.09;56.51;101973.16;5031039;28;20033;-44
2023/06/28 00:37:32;;;;;;;7.57;3.25;;;;;;;21.95;56.84;101973.41;5030350;28;20044;-49
2023/06/28 00:39:59;;;;;;;7.22;3.25;;;;;;;21.91;56.99;101965.47;5030955;28;20040;-42
2023/06/28 00:42:24;;;;;;;6.95;2.83;;;;;;;22.08;56.46;101966.97;5030924;28;20515;-50
2023/06/28 00:44:49;;;;;;;6.70;3.10;;;;;;;22.09;56.98;101970.50;5029513;28;20116;-47
2023/06/28 00:47:15;;;;;;;8.00;3.40;;;;;;;22.13;56.95;101965.16;5028501;28;20385;-47
2023/06/28 00:49:41;;;;;;;8.40;3.42;;;;;;;21.80;58.46;101970.94;5029762;28;20034;-50
2023/06/28 00:52:08;;;;;;;15.88;4.10;;;;;;;21.42;60.01;101961.78;5028935;28;20037;-48
2023/06/28 00:54:33;;;;;;;9.63;4.10;;;;;;;21.66;59.47;101972.94;5030395;28;20038;-43
2023/06/28 00:56:59;;;;;;;10.27;4.40;;;;;;;21.68;59.80;101969.38;5030634;28;20090;-50
2023/06/28 00:59:26;;;;;;;12.13;5.00;;;;;;;21.89;59.82;101967.28;5030164;28;20052;-47
2023/06/28 01:01:52;;;;;;;11.50;4.82;;;;;;;21.52;61.02;101957.25;5029456;28;20037;-49
2023/06/28 01:04:18;;;;;;;13.73;4.95;;;;;;;21.70;60.91;101956.09;5030318;28;20033;-45
2023/06/28 01:06:51;;;;;;;13.27;4.65;;;;;;;21.52;61.72;101959.88;5029611;28;20128;-47
2023/06/28 01:09:21;;;;;;;12.13;4.20;;;;;;;21.63;61.55;101957.94;5030017;28;20499;-44
2023/06/28 01:11:51;;;;;;;10.32;3.80;;;;;;;21.37;62.87;101957.44;5029751;28;20392;-45
2023/06/28 01:14:18;;;;;;;8.38;3.83;;;;;;;21.39;63.00;101967.16;5030020;28;20091;-44
2023/06/28 01:16:45;;;;;;;7.30;3.63;;;;;;;21.40;63.20;101955.63;5029248;28;20036;-44
2023/06/28 01:19:13;;;;;;;8.75;3.60;;;;;;;21.50;62.74;101953.72;5029988;28;20040;-44
2023/06/28 01:21:41;;;;;;;8.93;3.65;;;;;;;21.30;63.68;101947.81;5029428;28;20033;-47
2023/06/28 01:24:10;;;;;;;9.25;3.80;;;;;;;21.42;63.55;101947.63;5029604;28;20042;-49
2023/06/28 01:26:36;;;;;;;7.65;3.83;;;;;;;21.46;63.71;101949.38;5028831;28;20045;-45
2023/06/28 01:29:03;;;;;;;8.13;3.55;;;;;;;21.51;64.08;101944.88;5029752;28;20368;-45
2023/06/28 01:31:30;;;;;;;7.32;3.45;;;;;;;21.20;64.42;101943.53;5029170;28;20384;-46
2023/06/28 01:33:55;;;;;;;7.82;3.70;;;;;;;21.11;64.25;101947.16;5029468;28;20034;-43
2023/06/28 01:36:21;;;;;;;9.15;3.65;;;;;;;21.19;64.04;101955.03;5029469;28;20047;-50
2023/06/28 01:38:47;;;;;;;8.82;3.60;;;;;;;21.42;63.22;101951.16;5028968;28;20037;-47
2023/06/28 01:41:12;;;;;;;6.90;3.55;;;;;;;21.43;63.19;101954.69;5029694;28;20048;-45
2023/06/28 01:43:39;;;;;;;7.10;3.50;;;;;;;21.48;63.22;101954.63;5030178;28;20087;-46
2023/06/28 01:46:05;;;;;;;8.50;3.70;;;;;;;21.06;64.55;101960.47;5030445;28;20095;-43
2023/06/28 01:48:31;;;;;;;8.65;3.85;;;;;;;21.25;64.10;101961.13;5030116;28;20496;-43
2023/06/28 01:50:57;;;;;;;6.85;3.47;;;;;;;20.96;64.80;101958.84;5031205;28;20033;-45
2023/06/28 01:53:23;;;;;;;8.55;3.53;;;;;;;21.31;64.00;101952.22;5030556;28;20044;-43
2023/06/28 01:55:48;;;;;;;9.95;4.03;;;;;;;21.28;64.23;101947.84;5029783;28;20022;-46
2023/06/28 01:58:13;;;;;;;7.63;3.53;;;;;;;21.43;64.28;101946.75;5029126;28;20095;-47
2023/06/28 02:00:39;;;;;;;7.22;3.40;;;;;;;21.51;64.17;101944.00;5028998;28;20041;-44
2023/06/28 02:03:04;;;;;;;9.20;3.55;;;;;;;21.44;64.83;101954.69;5029977;28;20040;-50
2023/06/28 02:05:30;;;;;;;6.63;3.42;;;;;;;21.54;64.97;101952.75;5029476;28;20148;-44
2023/06/28 02:07:56;;;;;;;10.57;3.70;;;;;;;21.57;65.18;101947.44;5029356;28;20103;-48
2023/06/28 02:10:25;;;;;;;6.65;3.10;;;;;;;21.63;65.10;101952.66;5029347;28;20508;-47
2023/06/28 02:12:51;;;;;;;7.35;3.20;;;;;;;21.70;65.09;101946.34;5028612;28;20381;-46
2023/06/28 02:15:16;;;;;;;6.85;3.17;;;;;;;21.74;64.48;101949.81;5033323;28;20033;-43
2023/06/28 02:17:42;;;;;;;7.63;2.90;;;;;;;21.76;64.71;101945.38;5032343;28;20088;-46
2023/06/28 02:20:10;;;;;;;6.47;3.30;;;;;;;21.76;64.62;101948.91;5033500;28;20056;-45
2023/06/28 02:22:36;;;;;;;8.18;3.47;;;;;;;21.80;65.10;101944.41;5032759;28;20049;-43
2023/06/28 02:25:02;;;;;;;6.63;3.30;;;;;;;21.86;64.43;101939.00;5032230;28;20111;-46
2023/06/28 02:27:27;;;;;;;7.18;3.28;;;;;;;21.84;65.08;101940.78;5031824;28;20033;-47
2023/06/28 02:29:53;;;;;;;8.93;3.78;;;;;;;21.82;65.18;101940.84;5032846;28;20111;-46
2023/06/28 02:32:18;;;;;;;7.78;3.58;;;;;;;21.86;65.25;101936.34;5033055;28;20042;-43
2023/06/28 02:34:43;;;;;;;6.45;3.10;;;;;;;21.85;65.38;101929.28;5032241;28;20042;-44
2023/06/28 02:37:09;;;;;;;12.23;3.97;;;;;;;21.59;66.19;101929.69;5032231;28;20061;-46
2023/06/28 02:39:34;;;;;;;8.38;3.53;;;;;;;21.65;66.19;101920.78;5032096;28;20033;-43
2023/06/28 02:41:59;;;;;;;7.80;3.30;;;;;;;21.59;66.60;101931.50;5032857;28;20136;-43
2023/06/28 02:44:25;;;;;;;6.43;3.42;;;;;;;21.70;66.21;101926.88;5032273;28;20038;-43
2023/06/28 02:46:50;;;;;;;7.00;3.42;;;;;;;21.75;65.99;101925.91;5032155;28;20455;-48
2023/06/28 02:49:15;;;;;;;6.45;3.50;;;;;;;21.77;65.58;101920.59;5032460;28;20217;-43
2023/06/28 02:51:40;;;;;;;8.13;3.40;;;;;;;21.81;65.52;101925.81;5031792;28;20037;-50
2023/06/28 02:54:06;;;;;;;7.47;3.33;;;;;;;21.79;65.09;101916.09;5032128;28;20037;-47
2023/06/28 02:56:33;;;;;;;8.82;3.63;;;;;;;21.49;66.03;101921.91;5031544;28;20030;-45
2023/06/28 02:58:58;;;;;;;11.40;3.83;;;;;;;21.63;65.47;101917.25;5032242;28;20454;-46
2023/06/28 03:01:24;;;;;;;7.55;3.40;;;;;;;21.67;65.10;101918.97;5030666;28;20033;-45
2023/06/28 03:03:49;;;;;;;7.43;3.05;;;;;;;21.74;65.29;101917.97;5031996;28;20037;-46
2023/06/28 03:06:15;;;;;;;8.63;3.53;;;;;;;21.71;65.08;101913.56;5032228;28;20033;-44
2023/06/28 03:08:43;;;;;;;7.30;3.35;;;;;;;21.54;65.93;101915.63;5031180;28;20064;-44
2023/06/28 03:11:09;;;;;;;8.95;3.53;;;;;;;21.53;66.03;101927.13;5032206;28;20036;-46
2023/06/28 03:13:34;;;;;;;10.63;3.42;;;;;;;21.44;65.85;101920.19;5031758;28;20041;-44
2023/06/28 03:16:00;;;;;;;8.48;3.47;;;;;;;21.41;65.94;101932.59;5032039;28;20029;-50
2023/06/28 03:18:25;;;;;;;9.55;3.15;;;;;;;21.56;65.31;101923.56;5030903;28;20697;-46
2023/06/28 03:20:51;;;;;;;7.25;3.20;;;;;;;21.56;65.71;101921.78;5031987;28;20119;-44
2023/06/28 03:23:16;;;;;;;9.40;3.33;;;;;;;21.26;66.20;101932.84;5031683;28;20171;-44
2023/06/28 03:25:42;;;;;;;9.20;3.17;;;;;;;21.37;66.04;101917.66;5030371;28;20048;-43
2023/06/28 03:28:07;;;;;;;8.52;3.00;;;;;;;21.49;65.82;101911.28;5031164;28;20030;-44
2023/06/28 03:30:33;;;;;;;7.82;3.10;;;;;;;21.39;65.71;101916.75;5031349;28;20125;-43
2023/06/28 03:32:58;;;;;;;8.05;3.33;;;;;;;21.50;65.24;101913.03;5031754;28;20079;-47
2023/06/28 03:35:24;;;;;;;9.65;3.00;;;;;;;21.50;65.03;101907.72;5031256;28;20071;-50
2023/06/28 03:37:50;;;;;;;9.00;3.53;;;;;;;21.37;65.77;101909.69;5031301;28;20488;-44
2023/06/28 03:40:16;;;;;;;7.57;3.30;;;;;;;21.51;65.59;101906.84;5031578;28;20412;-45
2023/06/28 03:42:41;;;;;;;7.15;3.38;;;;;;;21.53;65.36;101897.09;5031301;28;20045;-49
2023/06/28 03:45:07;;;;;;;8.52;3.42;;;;;;;21.44;65.17;101906.94;5031394;28;20068;-45
2023/06/28 03:47:32;;;;;;;8.25;3.22;;;;;;;21.43;65.08;101902.53;5030418;28;20036;-43
2023/06/28 03:49:58;;;;;;;8.57;3.10;;;;;;;21.49;65.07;101911.28;5031218;28;20041;-45
2023/06/28 03:52:23;;;;;;;7.28;3.20;;;;;;;21.43;64.85;101899.88;5030451;28;20451;-45
2023/06/28 03:54:48;;;;;;;10.30;3.03;;;;;;;21.48;64.56;101898.91;5030679;28;20160;-44
2023/06/28 03:57:14;;;;;;;7.72;3.22;;;;;;;21.46;64.82;101898.97;5030895;28;20144;-48
2023/06/28 03:59:39;;;;;;;7.00;3.28;;;;;;;21.39;64.95;101898.16;5030708;28;20041;-45
2023/06/28 04:02:05;;;;;;;9.27;3.60;;;;;;;21.36;64.80;101894.66;5030965;28;20033;-44
2023/06/28 04:04:30;;;;;;;10.32;3.38;;;;;;;21.30;65.19;101900.06;5030371;28;20511;-46
2023/06/28 04:06:55;;;;;;;7.82;3.15;;;;;;;21.18;65.53;101894.94;5030641;28;20052;-45
2023/06/28 04:09:21;;;;;;;6.40;3.10;;;;;;;21.25;65.38;101891.31;5031023;28;20037;-44
2023/06/28 04:11:46;;;;;;;10.38;3.50;;;;;;;21.20;65.35;101890.50;5030775;28;20109;-47
2023/06/28 04:14:11;;;;;;;7.05;3.55;;;;;;;21.36;64.95;101899.97;5029745;28;20228;-45
2023/06/28 04:16:37;;;;;;;9.05;3.30;;;;;;;21.33;65.35;101894.72;5030047;28;20044;-49
2023/06/28 04:19:04;;;;;;;7.55;3.38;;;;;;;21.31;65.48;101896.53;5030930;28;20045;-47
2023/06/28 04:21:29;;;;;;;10.05;4.15;;;;;;;21.39;65.36;101899.94;5030132;28;20128;-47
2023/06/28 04:23:54;;;;;;;8.60;4.60;;;;;;;21.28;65.44;101901.88;5030727;28;20648;-46
2023/06/28 04:26:20;;;;;;;9.25;4.07;;;;;;;21.33;66.00;101894.72;5031061;28;20539;-47
2023/06/28 04:28:45;;;;;;;7.90;3.50;;;;;;;21.31;66.31;101893.88;5029827;28;20125;-50
2023/06/28 04:31:11;;;;;;;9.43;3.83;;;;;;;21.19;66.41;101900.22;5030764;28;20096;-49
2023/06/28 04:33:36;;;;;;;8.73;3.60;;;;;;;21.18;66.42;101889.63;5030040;28;20128;-47
2023/06/28 04:36:01;;;;;;;9.48;4.07;;;;;;;21.19;66.47;101886.09;5030498;28;20116;-49
2023/06/28 04:38:27;;;;;;;8.30;3.47;;;;;;;21.33;66.28;101887.66;5029845;28;20039;-43
2023/06/28 04:40:53;;;;;;;8.05;3.58;;;;;;;21.37;66.38;101893.78;5030537;28;20039;-46
2023/06/28 04:43:20;;;;;;;9.65;3.90;;;;;;;21.22;67.25;101889.59;5030755;28;20038;-47
2023/06/28 04:45:46;;;;;;;9.02;3.88;;;;;;;21.41;66.70;101895.47;5030337;28;20082;-45
2023/06/28 04:48:11;;;;;;;7.47;3.90;;;;;;;21.43;66.97;101883.06;5030606;28;20033;-43
2023/06/28 04:50:37;;;;;;;9.73;4.30;;;;;;;21.36;67.08;101884.06;5030643;28;20033;-44
2023/06/28 04:53:06;;;;;;;11.15;4.82;;;;;;;21.32;66.68;101885.00;5030495;28;20446;-44
2023/06/28 04:55:34;;;;;;;13.35;4.32;;;;;;;21.33;67.03;101886.78;5029922;28;20033;-44
2023/06/28 04:58:04;;;;;;;9.85;4.18;;;;;;;21.36;66.81;101887.59;5029744;28;20041;-47
2023/06/28 05:00:30;;;;;;;9.60;4.10;;;;;;;21.55;66.53;101882.00;5029653;28;20034;-45
2023/06/28 05:02:56;;;;;;;8.13;4.05;;;;;;;21.60;66.27;101886.31;5030018;28;20521;-44
2023/06/28 05:05:26;;;;;;;8.90;4.25;;;;;;;21.63;66.38;101894.25;5029796;28;20384;-43
2023/06/28 05:07:53;;;;;;;10.50;4.28;;;;;;;21.71;66.17;101892.34;5029323;28;20032;-47
2023/06/28 05:10:19;;;;;;;10.85;4.50;;;;;;;21.68;66.45;101887.09;5029735;28;20029;-44
2023/06/28 05:12:45;;;;;;;11.85;4.50;;;;;;;21.68;66.42;101883.56;5029415;28;20091;-44
2023/06/28 05:15:10;;;;;;;10.63;4.53;;;;;;;21.72;66.08;101882.59;5029877;28;20510;-44
2023/06/28 05:17:35;;;;;;;10.55;4.72;;;;;;;21.79;66.18;101881.59;5028905;28;20037;-50
2023/06/28 05:20:01;;;;;;;11.70;4.47;;;;;;;21.69;66.08;101880.88;5029539;28;20029;-49
2023/06/28 05:22:27;;;;;;;9.18;4.45;;;;;;;21.68;66.18;101872.94;5029561;28;20033;-44
2023/06/28 05:24:53;;;;;;;11.82;4.47;;;;;;;21.80;65.80;101883.34;5030208;28;20040;-47
2023/06/28 05:27:19;;;;;;;9.43;4.00;;;;;;;21.92;65.30;101879.59;5029300;28;20037;-46
2023/06/28 05:29:44;;;;;;;11.52;4.97;;;;;;;21.74;65.36;101879.03;5028850;28;20038;-44
2023/06/28 05:32:10;;;;;;;11.15;4.57;;;;;;;21.91;65.06;101877.84;5029644;28;20029;-48
2023/06/28 05:34:35;;;;;;;11.80;4.70;;;;;;;21.85;66.25;101877.06;5029183;28;20033;-47
2023/06/28 05:37:00;;;;;;;11.07;4.88;;;;;;;21.91;65.17;101878.72;5029044;28;20037;-45
2023/06/28 05:39:26;;;;;;;11.23;4.18;;;;;;;21.91;64.81;101870.75;5029034;28;20064;-43
2023/06/28 05:41:51;;;;;;;10.70;4.15;;;;;;;22.12;64.16;101872.22;5029735;28;20033;-48
2023/06/28 05:44:20;;;;;;;7.55;3.75;;;;;;;22.21;64.47;101866.69;5029476;28;20033;-45
2023/06/28 05:46:46;;;;;;;12.63;4.50;;;;;;;22.26;64.55;101865.72;5028912;28;20029;-44
2023/06/28 05:49:12;;;;;;;10.70;4.53;;;;;;;22.28;64.00;101865.69;5029065;28;20033;-45
2023/06/28 05:51:37;;;;;;;11.68;4.57;;;;;;;22.19;63.60;101864.09;5029355;28;20049;-47
2023/06/28 05:54:02;;;;;;;8.60;4.13;;;;;;;22.43;63.58;101870.72;5030348;28;20104;-46
2023/06/28 05:56:29;;;;;;;8.05;4.10;;;;;;;22.46;63.46;101867.09;5029996;28;20029;-44
2023/06/28 05:58:56;;;;;;;9.95;4.03;;;;;;;22.52;63.20;101866.97;5030343;28;20519;-45
2023/06/28 06:01:22;;;;;;;9.82;4.20;;;;;;;22.50;62.66;101861.72;5029936;28;20041;-46
2023/06/28 06:03:47;;;;;;;9.50;4.20;;;;;;;22.66;62.93;101864.94;5029747;28;20037;-44
2023/06/28 06:06:12;;;;;;;9.82;4.10;;;;;;;22.78;62.51;101861.16;5030140;28;20051;-46
2023/06/28 06:08:38;;;;;;;8.02;4.13;;;;;;;22.84;61.87;101863.69;5028734;28;20057;-51
2023/06/28 06:11:03;;;;;;;13.10;4.28;;;;;;;22.91;61.70;101863.53;5029420;28;20117;-43
2023/06/28 06:13:29;;;;;;;11.82;4.43;;;;;;;23.07;61.22;101856.06;5029787;28;20120;-46
2023/06/28 06:15:54;;;;;;;11.35;4.20;;;;;;;23.09;60.76;101864.03;5029687;28;20029;-45
2023/06/28 06:18:20;;;;;;;9.95;4.40;;;;;;;23.00;60.32;101865.97;5029416;28;20042;-44
2023/06/28 06:20:45;;;;;;;9.82;4.20;;;;;;;23.11;60.04;101871.06;5029292;28;20034;-44
2023/06/28 06:23:11;;;;;;;11.10;4.18;;;;;;;22.95;59.81;101870.53;5029607;28;20034;-49
2023/06/28 06:25:36;;;;;;;10.10;4.30;;;;;;;23.05;59.59;101869.41;5029116;28;20042;-45
2023/06/28 06:28:01;;;;;;;9.65;4.40;;;;;;;23.06;59.90;101865.84;5029231;28;20037;-45
2023/06/28 06:30:27;;;;;;;9.70;4.45;;;;;;;23.11;60.19;101871.06;5029130;28;20038;-49
2023/06/28 06:32:52;;;;;;;12.32;4.72;;;;;;;23.11;59.96;101862.22;5027726;28;20715;-44
2023/06/28 06:35:17;;;;;;;14.32;6.25;;;;;;;23.14;60.02;101865.66;5029248;28;20453;-45
2023/06/28 06:37:45;;;;;;;21.10;7.82;;;;;;;23.11;59.59;101865.75;5028313;28;20510;-47
2023/06/28 06:40:11;;;;;;;19.27;8.70;;;;;;;23.22;59.90;101857.53;5029378;28;20483;-44
2023/06/28 06:42:36;;;;;;;18.95;8.90;;;;;;;23.42;59.22;101863.25;5029374;28;20036;-44
2023/06/28 06:45:02;;;;;;;23.08;10.48;;;;;;;22.91;61.07;101863.53;5029810;28;20068;-49
2023/06/28 06:47:27;;;;;;;25.67;10.05;;;;;;;23.20;60.30;101862.88;5028798;28;20029;-46
2023/06/28 06:49:52;;;;;;;22.17;10.52;;;;;;;23.29;59.69;101862.66;5029259;28;20126;-45
2023/06/28 06:52:18;;;;;;;19.90;9.05;;;;;;;23.45;59.10;101868.50;5028969;28;20040;-45
2023/06/28 06:54:43;;;;;;;17.33;8.50;;;;;;;23.68;58.96;101865.28;5028206;28;20128;-46
2023/06/28 06:57:09;;;;;;;16.17;6.80;;;;;;;23.57;58.53;101865.56;5027446;28;20029;-45
2023/06/28 06:59:34;;;;;;;13.70;6.40;;;;;;;23.62;58.72;101865.44;5028000;28;20039;-45
2023/06/28 07:01:59;;;;;;;14.05;6.30;;;;;;;23.38;59.15;101862.44;5030986;28;20127;-44
2023/06/28 07:04:25;;;;;;;11.50;5.32;;;;;;;23.28;58.84;101873.34;5032018;28;20034;-48
2023/06/28 07:06:50;;;;;;;12.80;5.40;;;;;;;23.73;58.51;101872.25;5031755;28;20030;-44
2023/06/28 07:09:17;;;;;;;11.68;5.07;;;;;;;23.90;57.35;101874.50;5030074;28;20155;-46
2023/06/28 07:11:43;;;;;;;16.05;5.68;;;;;;;23.86;57.48;101876.34;5031553;28;20594;-44
2023/06/28 07:14:09;;;;;;;14.98;5.30;;;;;;;23.92;57.44;101880.63;5031991;28;20026;-51
2023/06/28 07:16:35;;;;;;;13.18;5.40;;;;;;;24.24;57.05;101874.50;5029939;28;20534;-44
2023/06/28 07:19:01;;;;;;;11.43;5.22;;;;;;;23.69;57.77;101880.34;5026745;28;20045;-46
2023/06/28 07:21:26;;;;;;;7.72;4.60;;;;;;;24.22;56.69;101882.53;5030857;28;20127;-44
2023/06/28 07:23:51;;;;;;;12.38;5.38;;;;;;;23.76;58.26;101887.28;5031705;28;20056;-53
2023/06/28 07:26:17;;;;;;;12.88;5.18;;;;;;;23.98;56.86;101895.59;5031133;28;20047;-44
2023/06/28 07:28:43;;;;;;;9.57;5.03;;;;;;;24.29;56.70;101891.22;5029933;28;20499;-49
2023/06/28 07:31:09;;;;;;;11.52;5.05;;;;;;;24.44;56.64;101888.16;5031482;28;20033;-47
2023/06/28 07:33:34;;;;;;;13.25;4.93;;;;;;;24.44;56.26;101885.47;5030931;28;20091;-50
2023/06/28 07:36:00;;;;;;;11.60;4.90;;;;;;;24.65;54.91;101890.19;5031120;28;20487;-46
2023/06/28 07:38:26;;;;;;;10.90;5.13;;;;;;;24.86;55.50;101888.69;5030206;28;20038;-45
2023/06/28 07:40:53;;;;;;;12.57;4.88;;;;;;;24.52;56.31;101880.78;5031042;28;20036;-44
2023/06/28 07:43:19;;;;;;;8.40;4.85;;;;;;;24.95;54.84;101882.22;5031168;28;20033;-53
2023/06/28 07:45:45;;;;;;;12.95;4.95;;;;;;;25.18;53.78;101879.75;5031412;28;20099;-46
2023/06/28 07:48:10;;;;;;;14.05;5.40;;;;;;;24.60;56.20;101889.44;5029588;28;20132;-50
2023/06/28 07:50:36;;;;;;;12.30;5.30;;;;;;;24.43;55.98;101880.19;5030651;28;20154;-46
2023/06/28 07:53:02;;;;;;;12.15;5.97;;;;;;;24.37;55.64;101883.91;5030964;28;20084;-47
2023/06/28 07:55:28;;;;;;;10.68;5.32;;;;;;;24.42;56.35;101883.75;5030634;28;20044;-50
2023/06/28 07:57:57;;;;;;;12.00;5.90;;;;;;;24.58;55.92;101880.63;5030866;28;20037;-44
2023/06/28 08:00:25;;;;;;;14.80;5.68;;;;;;;24.30;56.54;101887.66;5031545;28;20083;-45
2023/06/28 08:02:50;;;;;;;11.25;5.60;;;;;;;24.67;56.31;101882.16;5031180;28;20034;-46
2023/06/28 08:05:15;;;;;;;14.05;5.60;;;;;;;24.68;55.35;101886.56;5029316;28;20088;-47
2023/06/28 08:07:41;;;;;;;16.30;6.60;;;;;;;24.55;55.50;101878.06;5030418;28;20046;-44
2023/06/28 08:10:07;;;;;;;12.55;6.13;;;;;;;24.58;55.11;101887.72;5031502;28;20563;-44
2023/06/28 08:12:32;;;;;;;13.70;6.05;;;;;;;24.63;55.57;101889.38;5030752;28;20076;-44
2023/06/28 08:14:58;;;;;;;14.50;6.32;;;;;;;24.74;55.51;101880.19;5030934;28;20041;-52
2023/06/28 08:17:23;;;;;;;12.68;6.47;;;;;;;24.46;56.56;101893.41;5029727;28;20126;-45
2023/06/28 08:19:49;;;;;;;15.93;6.78;;;;;;;24.50;56.08;101887.09;5030523;28;20025;-47
2023/06/28 08:22:14;;;;;;;15.57;6.70;;;;;;;24.73;56.10;101886.44;5031042;28;20088;-48
2023/06/28 08:24:40;;;;;;;15.38;6.55;;;;;;;24.87;55.48;101892.25;5030365;28;20049;-46
2023/06/28 08:27:06;;;;;;;11.93;5.88;;;;;;;24.74;55.72;101893.53;5031011;28;20376;-48
2023/06/28 08:29:31;;;;;;;17.92;6.75;;;;;;;24.80;55.60;101888.00;5030055;28;20044;-49
2023/06/28 08:31:56;;;;;;;11.95;6.45;;;;;;;24.89;55.80;101882.41;5030411;28;20030;-51
2023/06/28 08:34:22;;;;;;;15.80;6.68;;;;;;;24.68;56.15;101891.91;5030754;28;20061;-45
2023/06/28 08:36:47;;;;;;;15.23;6.70;;;;;;;24.80;56.11;101893.34;5029458;28;20163;-49
2023/06/28 08:39:12;;;;;;;17.77;6.50;;;;;;;25.08;56.48;101880.06;5030712;28;20128;-48
2023/06/28 08:41:40;;;;;;;15.02;7.10;;;;;;;24.91;56.78;101883.25;5030102;28;20040;-45
2023/06/28 08:44:06;;;;;;;15.32;6.65;;;;;;;24.96;57.02;101881.31;5030439;28;20428;-52
2023/06/28 08:46:31;;;;;;;15.90;7.60;;;;;;;25.17;55.63;101886.00;5029162;28;20036;-49
2023/06/28 08:48:58;;;;;;;15.40;7.97;;;;;;;24.72;57.63;101887.34;5029758;28;20038;-43
2023/06/28 08:51:25;;;;;;;15.88;7.10;;;;;;;24.89;57.47;101882.41;5030042;28;20041;-44
2023/06/28 08:53:51;;;;;;;19.58;8.00;;;;;;;24.69;57.85;101888.31;5029315;28;20171;-48
2023/06/28 08:56:17;;;;;;;19.65;7.82;;;;;;;25.24;56.40;101884.03;5029924;28;20087;-45
2023/06/28 08:58:44;;;;;;;15.65;7.63;;;;;;;25.45;55.81;101880.66;5029216;28;20033;-44
2023/06/28 09:01:11;;;;;;;18.92;8.50;;;;;;;25.29;55.78;101888.28;5029547;28;20033;-44
2023/06/28 09:03:42;;;;;;;14.73;8.32;;;;;;;25.20;55.80;101880.56;5029179;28;20068;-48
2023/06/28 09:06:08;;;;;;;20.45;9.00;;;;;;;25.40;54.84;101880.81;5030303;28;20040;-44
2023/06/28 09:08:34;;;;;;;16.58;8.38;;;;;;;25.79;54.17;101889.34;5028682;28;20148;-48
2023/06/28 09:11:00;;;;;;;18.45;8.68;;;;;;;25.68;54.04;101887.94;5029480;28;20040;-47
2023/06/28 09:13:30;;;;;;;13.00;7.40;;;;;;;25.84;54.19;101897.19;5028875;28;20041;-46
2023/06/28 09:15:56;;;;;;;16.40;8.38;;;;;;;25.66;54.62;101885.34;5029602;28;20163;-49
2023/06/28 09:18:21;;;;;;;16.02;8.82;;;;;;;25.73;54.82;101883.34;5029053;28;20480;-46
2023/06/28 09:20:52;;;;;;;18.73;9.35;;;;;;;25.65;55.06;101883.59;5029001;28;20408;-51
2023/06/28 09:23:28;;;;;;;19.40;9.48;;;;;;;25.42;56.02;101872.75;5028817;28;20053;-50
2023/06/28 09:25:54;;;;;;;19.92;9.82;;;;;;;25.50;55.13;101875.16;5028899;28;20038;-43
2023/06/28 09:28:22;;;;;;;18.70;9.80;;;;;;;25.65;54.72;101880.91;5028734;28;20515;-49
2023/06/28 09:30:55;;;;;;;16.25;9.40;;;;;;;25.62;55.05;101874.78;5029298;28;20034;-46
2023/06/28 09:33:21;;;;;;;21.35;10.20;;;;;;;25.75;55.33;101881.47;5009856;28;20042;-48
2023/06/28 09:35:47;;;;;;;18.92;10.30;;;;;;;26.06;53.80;101883.97;5020550;28;20550;-47
2023/06/28 09:38:12;;;;;;;21.58;9.95;;;;;;;26.05;54.26;101877.75;5028777;28;20045;-44
2023/06/28 09:40:38;;;;;;;23.23;10.35;;;;;;;25.66;55.02;101873.78;5029242;28;20030;-48
2023/06/28 09:43:03;;;;;;;23.42;10.50;;;;;;;25.73;54.69;101875.31;5029699;28;20034;-48
2023/06/28 09:45:36;;;;;;;21.13;10.48;;;;;;;25.70;55.53;101872.75;5029234;28;20034;-45
2023/06/28 09:48:05;;;;;;;18.67;9.93;;;;;;;25.91;54.19;101879.16;5028841;28;20037;-45
2023/06/28 09:50:37;;;;;;;20.98;10.68;;;;;;;26.24;53.76;101878.88;5028615;28;20065;-46
2023/06/28 09:53:21;;;;;;;21.53;10.13;;;;;;;25.96;54.54;101874.53;5028811;28;20052;-47
2023/06/28 09:55:49;;;;;;;24.58;10.38;;;;;;;25.88;55.14;101881.94;5028723;28;20021;-44
2023/06/28 09:58:19;;;;;;;21.75;10.95;;;;;;;25.72;55.38;101881.59;5028716;28;20052;-47
2023/06/28 10:00:49;;;;;;;15.82;9.43;;;;;;;26.15;54.81;101873.84;5028356;28;20049;-43
2023/06/28 10:03:16;;;;;;;20.52;10.30;;;;;;;26.21;54.26;101872.75;5028855;28;20056;-45
2023/06/28 10:05:43;;;;;;;22.70;10.90;;;;;;;25.64;56.08;101878.28;5028665;28;20128;-50
2023/06/28 10:08:14;;;;;;;18.77;9.05;;;;;;;26.06;54.69;101875.94;5028410;28;20040;-49
2023/06/28 10:10:41;;;;;;;22.77;9.35;;;;;;;26.48;52.79;101874.44;5028482;28;20045;-52
2023/06/28 10:13:11;;;;;;;24.88;9.65;;;;;;;26.33;52.95;101880.38;5028784;28;20041;-46
2023/06/28 10:16:00;;;;;;;19.40;9.50;;;;;;;26.29;52.69;101875.19;5028592;28;20045;-48
2023/06/28 10:18:26;;;;;;;19.52;9.88;;;;;;;26.21;53.23;101870.94;5027799;28;20407;-46
2023/06/28 10:20:51;;;;;;;21.13;10.48;;;;;;;25.78;55.41;101878.72;5028555;28;20030;-46
2023/06/28 10:23:17;;;;;;;23.30;9.43;;;;;;;25.73;55.97;101872.66;5028861;28;20048;-49
2023/06/28 10:25:46;;;;;;;23.05;9.73;;;;;;;25.83;55.87;101872.28;5028097;28;20124;-46
2023/06/28 10:28:14;;;;;;;18.60;9.13;;;;;;;25.77;55.57;101867.16;5028403;28;20043;-46
2023/06/28 10:30:41;;;;;;;15.43;8.18;;;;;;;26.24;54.99;101868.19;5028540;28;20043;-46
2023/06/28 10:33:06;;;;;;;17.65;8.43;;;;;;;26.50;54.02;101861.03;5029540;28;20053;-46
2023/06/28 10:35:32;;;;;;;17.20;9.13;;;;;;;26.55;53.04;101869.72;5029985;28;20168;-48
2023/06/28 10:37:59;;;;;;;15.75;8.82;;;;;;;27.30;52.10;101860.56;5031925;28;20399;-48
2023/06/28 10:40:25;;;;;;;17.42;8.80;;;;;;;27.92;48.86;101858.91;5031971;28;20044;-49
2023/06/28 10:42:50;;;;;;;16.55;9.30;;;;;;;27.54;49.96;101865.88;5032501;28;20067;-41
2023/06/28 10:45:16;;;;;;;20.38;9.38;;;;;;;27.42;50.41;101865.44;5032510;28;20033;-43
2023/06/28 10:47:54;;;;;;;20.50;10.25;;;;;;;27.46;49.80;101866.16;5032306;28;20040;-47
2023/06/28 10:50:21;;;;;;;19.90;9.82;;;;;;;27.60;49.45;101860.28;5031395;28;20053;-45
2023/06/28 10:52:49;;;;;;;22.77;10.10;;;;;;;27.56;49.78;101869.38;5032308;28;20132;-43
2023/06/28 10:55:18;;;;;;;17.17;9.27;;;;;;;27.70;48.91;101866.97;5032638;28;20143;-47
2023/06/28 10:57:44;;;;;;;17.83;9.52;;;;;;;27.14;49.34;101869.28;5031302;28;20057;-45
2023/06/28 11:00:39;;;;;;;19.30;10.38;;;;;;;26.62;51.90;101869.47;5031997;28;20122;-48
2023/06/28 11:03:05;;;;;;;16.80;9.48;;;;;;;27.18;50.84;101869.09;5032765;28;20112;-49
2023/06/28 11:05:52;;;;;;;16.92;9.15;;;;;;;27.53;50.24;101865.00;5032237;28;20038;-44
2023/06/28 11:08:18;;;;;;;19.75;10.38;;;;;;;27.06;50.13;101861.56;5032606;28;20041;-44
2023/06/28 11:10:54;;;;;;;18.52;10.13;;;;;;;27.27;50.53;101862.50;5033417;28;20041;-44
2023/06/28 11:13:50;;;;;;;18.13;10.27;;;;;;;27.70;49.67;101864.31;5032328;28;20040;-49
2023/06/28 11:16:23;;;;;;;15.82;9.48;;;;;;;27.91;48.02;101868.75;5032451;28;20047;-45